createdAt,value
2022-08-16T00:01:41.091Z,22.40
2022-08-16T00:04:09.625Z,20.48
2022-08-16T00:06:39.204Z,21.55
2022-08-16T00:09:06.882Z,21.48
2022-08-16T00:11:33.522Z,21.52
2022-08-16T00:14:00.162Z,21.30
2022-08-16T00:17:00.824Z,22.45
2022-08-16T00:19:22.774Z,24.65
2022-08-16T00:21:52.220Z,25.77
2022-08-16T00:24:32.285Z,28.75
2022-08-16T00:27:00.749Z,20.95
2022-08-16T00:29:30.009Z,27.23
2022-08-16T00:32:01.470Z,29.23
2022-08-16T00:34:44.498Z,22.58
2022-08-16T00:37:20.157Z,25.45
2022-08-16T00:39:57.261Z,25.40
2022-08-16T00:42:30.259Z,26.80
2022-08-16T00:45:08.673Z,22.95
2022-08-16T00:47:37.083Z,24.30
2022-08-16T00:50:04.532Z,25.92
2022-08-16T00:52:35.935Z,21.73
2022-08-16T00:55:02.564Z,29.08
2022-08-16T00:57:58.327Z,21.48
2022-08-16T01:00:19.890Z,24.55
2022-08-16T01:02:50.379Z,22.20
2022-08-16T01:05:16.885Z,23.45
2022-08-16T01:07:51.263Z,26.55
2022-08-16T01:10:20.149Z,23.30
2022-08-16T01:12:46.856Z,24.30
2022-08-16T01:15:14.635Z,22.90
2022-08-16T01:17:42.171Z,24.42
2022-08-16T01:20:24.163Z,23.08
2022-08-16T01:23:08.826Z,22.58
2022-08-16T01:25:37.023Z,23.17
2022-08-16T01:28:07.433Z,27.83
2022-08-16T01:30:36.762Z,25.83
2022-08-16T01:33:14.791Z,25.90
2022-08-16T01:35:42.178Z,22.80
2022-08-16T01:38:25.762Z,22.52
2022-08-16T01:40:57.642Z,21.35
2022-08-16T01:43:28.730Z,28.80
2022-08-16T01:45:58.672Z,26.52
2022-08-16T01:48:27.611Z,23.48
2022-08-16T01:51:08.857Z,24.75
2022-08-16T01:53:41.985Z,33.25
2022-08-16T01:56:24.198Z,22.02
2022-08-16T01:58:51.835Z,25.08
2022-08-16T02:01:18.508Z,26.15
2022-08-16T02:03:45.325Z,22.23
2022-08-16T02:06:34.209Z,24.58
2022-08-16T02:09:02.248Z,25.90
2022-08-16T02:11:48.890Z,26.77
2022-08-16T02:14:21.620Z,24.55
2022-08-16T02:16:48.675Z,28.48
2022-08-16T02:19:17.540Z,23.67
2022-08-16T02:22:07.933Z,25.85
2022-08-16T02:24:34.323Z,23.70
2022-08-16T02:27:08.399Z,25.48
2022-08-16T02:29:34.821Z,22.00
2022-08-16T02:32:03.527Z,27.33
2022-08-16T02:34:33.036Z,28.83
2022-08-16T02:37:07.461Z,25.15
2022-08-16T02:39:34.053Z,24.25
2022-08-16T02:42:00.471Z,22.77
2022-08-16T02:44:28.442Z,21.35
2022-08-16T02:46:55.102Z,21.90
2022-08-16T02:49:57.989Z,26.08
2022-08-16T02:52:10.559Z,26.38
2022-08-16T02:54:43.683Z,26.88
2022-08-16T02:57:10.233Z,25.25
2022-08-16T02:59:39.760Z,22.73
2022-08-16T03:02:08.994Z,30.45
2022-08-16T03:04:50.632Z,32.83
2022-08-16T03:07:27.718Z,26.23
2022-08-16T03:09:54.387Z,27.75
2022-08-16T03:12:21.160Z,24.05
2022-08-16T03:14:57.010Z,33.13
2022-08-16T03:17:23.417Z,28.02
2022-08-16T03:20:02.430Z,21.77
2022-08-16T03:25:00.766Z,31.92
2022-08-16T03:27:32.364Z,27.70
2022-08-16T03:30:02.418Z,28.02
2022-08-16T03:32:43.623Z,23.23
2022-08-16T03:35:10.101Z,26.30
2022-08-16T03:38:03.292Z,25.85
2022-08-16T03:40:23.512Z,21.10
2022-08-16T03:43:18.751Z,23.42
2022-08-16T03:45:48.839Z,26.73
2022-08-16T03:48:19.746Z,25.83
2022-08-16T03:50:59.530Z,26.05
2022-08-16T03:53:37.622Z,26.42
2022-08-16T03:56:04.898Z,28.48
2022-08-16T03:58:33.317Z,27.40
2022-08-16T04:01:00.145Z,26.50
2022-08-16T04:03:26.554Z,33.10
2022-08-16T04:05:56.460Z,25.70
2022-08-16T04:08:24.578Z,31.50
2022-08-16T04:10:54.877Z,29.08
2022-08-16T04:13:58.848Z,27.55
2022-08-16T04:16:09.319Z,28.85
2022-08-16T04:18:54.350Z,34.15
2022-08-16T04:21:29.805Z,28.30
2022-08-16T04:23:56.270Z,26.73
2022-08-16T04:26:22.661Z,24.60
2022-08-16T04:28:53.697Z,23.73
2022-08-16T04:31:23.664Z,24.63
2022-08-16T04:33:50.925Z,24.90
2022-08-16T04:36:20.103Z,23.48
2022-08-16T04:38:47.283Z,29.35
2022-08-16T04:41:17.242Z,29.15
2022-08-16T04:43:44.332Z,26.33
2022-08-16T04:47:00.019Z,19.98
2022-08-16T04:48:57.158Z,22.85
2022-08-16T04:51:24.122Z,32.28
2022-08-16T04:53:52.581Z,20.58
2022-08-16T04:56:19.647Z,22.25
2022-08-16T04:58:48.865Z,23.48
2022-08-16T05:01:15.558Z,22.55
2022-08-16T05:03:59.776Z,18.77
2022-08-16T05:06:42.208Z,19.63
2022-08-16T05:09:12.096Z,19.08
2022-08-16T05:11:40.949Z,17.58
2022-08-16T05:14:07.524Z,17.63
2022-08-16T05:16:35.892Z,16.67
2022-08-16T05:19:02.338Z,15.82
2022-08-16T05:21:38.142Z,21.60
2022-08-16T05:24:06.928Z,17.17
2022-08-16T05:26:34.151Z,15.52
2022-08-16T05:29:03.748Z,17.02
2022-08-16T05:31:31.568Z,16.42
2022-08-16T05:33:59.262Z,15.75
2022-08-16T05:36:34.311Z,16.45
2022-08-16T05:39:07.964Z,13.60
2022-08-16T05:41:45.399Z,14.23
2022-08-16T05:44:24.134Z,16.52
2022-08-16T05:46:55.871Z,14.38
2022-08-16T05:49:23.254Z,16.60
2022-08-16T05:51:50.299Z,15.20
2022-08-16T05:54:17.622Z,13.43
2022-08-16T05:56:51.665Z,15.02
2022-08-16T05:59:18.669Z,13.43
2022-08-16T06:01:50.506Z,13.52
2022-08-16T06:04:35.480Z,18.35
2022-08-16T06:07:08.208Z,14.50
2022-08-16T06:09:42.713Z,20.52
2022-08-16T06:12:10.846Z,14.38
2022-08-16T06:14:39.990Z,14.85
2022-08-16T06:17:06.946Z,13.27
2022-08-16T06:19:33.995Z,16.02
2022-08-16T06:22:02.303Z,16.83
2022-08-16T06:24:54.603Z,13.85
2022-08-16T06:27:15.171Z,13.57
2022-08-16T06:29:44.659Z,15.63
2022-08-16T06:32:27.651Z,15.07
2022-08-16T06:35:03.073Z,13.68
2022-08-16T06:37:37.191Z,14.02
2022-08-16T06:40:04.818Z,12.93
2022-08-16T06:42:49.669Z,14.68
2022-08-16T06:45:17.985Z,14.18
2022-08-16T06:47:53.830Z,20.42
2022-08-16T06:50:28.397Z,14.73
2022-08-16T06:52:58.376Z,13.80
2022-08-16T06:57:55.441Z,12.77
2022-08-16T07:00:24.168Z,15.18
2022-08-16T07:02:51.512Z,12.57
2022-08-16T07:05:18.852Z,17.65
2022-08-16T07:07:50.853Z,14.20
2022-08-16T07:10:18.361Z,14.80
2022-08-16T07:12:59.611Z,15.38
2022-08-16T07:15:31.787Z,15.40
2022-08-16T07:17:59.937Z,12.25
2022-08-16T07:20:47.152Z,16.02
2022-08-16T07:23:13.904Z,12.85
2022-08-16T07:25:40.779Z,14.35
2022-08-16T07:28:11.855Z,13.20
2022-08-16T07:33:16.223Z,13.50
2022-08-16T07:35:44.504Z,13.65
2022-08-16T07:38:19.502Z,14.48
2022-08-16T07:41:09.877Z,19.75
2022-08-16T07:43:32.905Z,12.35
2022-08-16T07:45:59.542Z,16.20
2022-08-16T07:48:28.185Z,13.50
2022-08-16T07:50:59.123Z,16.33
2022-08-16T07:53:29.180Z,14.32
2022-08-16T07:55:55.917Z,16.80
2022-08-16T07:58:35.235Z,13.05
2022-08-16T08:01:10.131Z,13.02
2022-08-16T08:03:39.923Z,14.32
2022-08-16T08:06:06.760Z,14.25
2022-08-16T08:08:50.360Z,13.73
2022-08-16T08:11:19.090Z,12.82
2022-08-16T08:13:45.464Z,15.00
2022-08-16T08:16:18.829Z,13.55
2022-08-16T08:18:50.250Z,13.73
2022-08-16T08:21:27.403Z,12.40
2022-08-16T08:24:12.423Z,12.88
2022-08-16T08:26:42.792Z,12.60
2022-08-16T08:29:11.949Z,12.88
2022-08-16T08:31:42.195Z,12.85
2022-08-16T08:34:08.640Z,11.98
2022-08-16T08:36:39.030Z,17.85
2022-08-16T08:39:12.848Z,15.73
2022-08-16T08:41:40.562Z,13.40
2022-08-16T08:44:28.648Z,12.27
2022-08-16T08:47:00.419Z,15.23
2022-08-16T08:49:46.704Z,15.82
2022-08-16T08:52:35.304Z,15.25
2022-08-16T08:55:10.410Z,12.55
2022-08-16T08:57:38.237Z,14.23
2022-08-16T09:00:13.131Z,14.65
2022-08-16T09:02:40.029Z,12.00
2022-08-16T09:05:15.283Z,14.25
2022-08-16T09:08:00.386Z,11.35
2022-08-16T09:10:29.873Z,15.43
2022-08-16T09:12:56.733Z,16.67
2022-08-16T09:15:23.970Z,15.70
2022-08-16T09:17:55.707Z,15.30
2022-08-16T09:20:26.102Z,12.60
2022-08-16T09:22:52.977Z,14.27
2022-08-16T09:25:26.336Z,13.85
2022-08-16T09:28:02.194Z,14.65
2022-08-16T09:30:34.789Z,13.73
2022-08-16T09:33:12.950Z,14.02
2022-08-16T09:35:42.572Z,14.60
2022-08-16T09:38:09.908Z,13.15
2022-08-16T09:40:42.369Z,13.13
2022-08-16T09:43:21.069Z,14.55
2022-08-16T09:45:57.708Z,16.65
2022-08-16T09:48:44.066Z,14.63
2022-08-16T09:51:11.466Z,14.70
2022-08-16T09:53:39.649Z,15.38
2022-08-16T09:56:14.752Z,12.52
2022-08-16T09:59:05.826Z,15.13
2022-08-16T10:01:31.794Z,18.40
2022-08-16T10:04:01.265Z,13.85
2022-08-16T10:06:33.971Z,13.00
2022-08-16T10:09:05.045Z,16.08
2022-08-16T10:11:52.229Z,15.15
2022-08-16T10:14:19.955Z,13.93
2022-08-16T10:16:51.170Z,13.05
2022-08-16T10:19:29.842Z,12.40
2022-08-16T10:21:58.767Z,14.07
2022-08-16T10:24:28.785Z,13.90
2022-08-16T10:27:20.112Z,16.70
2022-08-16T10:29:59.329Z,13.18
2022-08-16T10:32:30.331Z,15.85
2022-08-16T10:34:57.986Z,13.52
2022-08-16T10:37:32.601Z,18.60
2022-08-16T10:40:02.673Z,16.92
2022-08-16T10:42:29.159Z,16.85
2022-08-16T10:44:56.277Z,12.20
2022-08-16T10:47:23.008Z,14.80
2022-08-16T10:49:50.134Z,16.05
2022-08-16T10:52:18.453Z,13.77
2022-08-16T10:57:34.899Z,15.20
2022-08-16T11:00:04.845Z,13.32
2022-08-16T11:02:58.819Z,14.50
2022-08-16T11:05:18.151Z,14.90
2022-08-16T11:07:53.639Z,12.77
2022-08-16T11:16:00.790Z,14.50
2022-08-16T11:19:03.222Z,14.90
2022-08-16T11:21:28.763Z,16.42
2022-08-16T11:23:58.159Z,16.25
2022-08-16T11:26:25.436Z,15.75
2022-08-16T11:31:40.065Z,15.77
2022-08-16T11:34:12.361Z,16.83
2022-08-16T11:36:39.976Z,12.63
2022-08-16T11:41:49.234Z,15.25
2022-08-16T11:44:20.167Z,12.85
2022-08-16T11:46:48.262Z,13.23
2022-08-16T11:49:14.846Z,12.27
2022-08-16T11:51:44.410Z,13.98
2022-08-16T11:54:21.171Z,14.88
2022-08-16T11:56:57.665Z,12.60
2022-08-16T11:59:28.538Z,18.55
2022-08-16T12:02:00.031Z,14.00
2022-08-16T12:04:31.722Z,17.20
2022-08-16T12:06:58.694Z,15.40
2022-08-16T12:09:29.660Z,27.08
2022-08-16T12:11:57.394Z,35.67
2022-08-16T12:14:23.921Z,16.80
2022-08-16T12:16:55.546Z,52.55
2022-08-16T12:19:22.266Z,18.20
2022-08-16T12:21:59.986Z,16.25
2022-08-16T12:24:27.105Z,14.32
2022-08-16T12:26:56.930Z,16.73
2022-08-16T12:29:23.379Z,14.10
2022-08-16T12:32:00.653Z,16.70
2022-08-16T12:34:29.430Z,17.30
2022-08-16T12:36:56.086Z,13.52
2022-08-16T12:39:22.614Z,14.02
2022-08-16T12:41:49.608Z,14.25
2022-08-16T12:44:19.812Z,16.08
2022-08-16T12:47:06.322Z,21.57
2022-08-16T12:49:32.753Z,16.58
2022-08-16T12:52:09.408Z,20.00
2022-08-16T12:54:57.938Z,15.82
2022-08-16T12:57:25.509Z,16.52
2022-08-16T13:00:04.987Z,17.05
2022-08-16T13:02:33.312Z,19.40
2022-08-16T13:05:00.347Z,15.95
2022-08-16T13:07:27.152Z,21.88
2022-08-16T13:09:58.282Z,25.77
2022-08-16T13:12:26.765Z,17.98
2022-08-16T13:14:53.679Z,13.70
2022-08-16T13:17:21.834Z,14.90
2022-08-16T13:22:45.298Z,15.23
2022-08-16T13:25:18.968Z,14.13
2022-08-16T13:28:02.495Z,20.80
2022-08-16T13:30:35.864Z,16.02
2022-08-16T13:33:10.801Z,16.23
2022-08-16T13:35:42.733Z,22.15
2022-08-16T13:38:10.215Z,19.88
2022-08-16T13:40:48.035Z,13.48
2022-08-16T13:43:15.785Z,15.88
2022-08-16T13:45:44.656Z,16.25
2022-08-16T13:48:11.520Z,15.45
2022-08-16T13:50:52.018Z,17.45
2022-08-16T13:53:18.781Z,15.23
2022-08-16T13:55:58.498Z,12.18
2022-08-16T13:58:37.255Z,12.15
2022-08-16T14:01:12.318Z,9.35
2022-08-16T14:03:39.691Z,12.05
2022-08-16T14:06:07.275Z,10.68
2022-08-16T14:08:37.971Z,9.52
2022-08-16T14:11:12.074Z,12.30
2022-08-16T14:13:38.665Z,8.48
2022-08-16T14:16:08.179Z,9.15
2022-08-16T14:18:50.085Z,9.20
2022-08-16T14:21:19.485Z,9.20
2022-08-16T14:23:48.643Z,10.10
2022-08-16T14:26:15.183Z,9.73
2022-08-16T14:28:41.648Z,7.60
2022-08-16T14:31:09.384Z,7.65
2022-08-16T14:33:36.040Z,10.95
2022-08-16T14:36:02.447Z,6.40
2022-08-16T14:38:37.378Z,8.25
2022-08-16T14:41:04.062Z,7.97
2022-08-16T14:43:33.451Z,8.68
2022-08-16T14:46:01.109Z,8.80
2022-08-16T14:48:28.269Z,8.02
2022-08-16T14:50:55.663Z,7.53
2022-08-16T14:53:23.514Z,10.82
2022-08-16T14:55:49.918Z,8.63
2022-08-16T14:58:19.564Z,7.90
2022-08-16T15:00:46.677Z,7.87
2022-08-16T15:03:13.061Z,9.45
2022-08-16T15:05:41.430Z,9.10
2022-08-16T15:08:08.393Z,8.93
2022-08-16T15:10:34.925Z,8.68
2022-08-16T15:13:09.602Z,7.53
2022-08-16T15:15:37.278Z,7.55
2022-08-16T15:18:04.639Z,6.80
2022-08-16T15:20:33.153Z,7.68
2022-08-16T15:23:01.377Z,6.45
2022-08-16T15:25:30.034Z,6.28
2022-08-16T15:27:58.627Z,6.32
2022-08-16T15:30:59.724Z,7.80
2022-08-16T15:33:17.352Z,7.68
2022-08-16T15:35:44.354Z,6.50
2022-08-16T15:38:10.765Z,8.90
2022-08-16T15:40:59.054Z,8.07
2022-08-16T15:43:33.876Z,9.48
2022-08-16T15:46:35.124Z,7.28
2022-08-16T15:49:12.947Z,8.15
2022-08-16T15:51:40.140Z,10.52
2022-08-16T15:54:29.761Z,8.27
2022-08-16T15:56:55.174Z,10.95
2022-08-16T15:59:26.946Z,9.30
2022-08-16T16:01:53.971Z,8.30
2022-08-16T16:04:22.814Z,14.02
2022-08-16T16:06:55.186Z,7.07
2022-08-16T16:09:36.530Z,7.60
2022-08-16T16:12:16.221Z,9.00
2022-08-16T16:14:51.029Z,7.32
2022-08-16T16:17:17.542Z,8.07
2022-08-16T16:19:43.982Z,8.73
2022-08-16T16:22:10.752Z,8.05
2022-08-16T16:24:44.418Z,9.50
2022-08-16T16:27:10.785Z,7.60
2022-08-16T16:29:40.272Z,8.45
2022-08-16T16:32:07.605Z,10.67
2022-08-16T16:34:35.725Z,9.15
2022-08-16T16:37:02.619Z,9.25
2022-08-16T16:39:31.680Z,8.57
2022-08-16T16:41:59.557Z,8.40
2022-08-16T16:44:33.598Z,8.02
2022-08-16T16:47:02.904Z,9.15
2022-08-16T16:49:29.298Z,14.20
2022-08-16T16:52:06.608Z,10.18
2022-08-16T16:54:35.501Z,11.82
2022-08-16T16:57:02.312Z,9.20
2022-08-16T16:59:28.862Z,10.43
2022-08-16T17:01:57.407Z,10.23
2022-08-16T17:04:32.254Z,11.05
2022-08-16T17:06:59.914Z,10.18
2022-08-16T17:09:26.428Z,10.57
2022-08-16T17:11:55.879Z,11.60
2022-08-16T17:14:32.061Z,11.02
2022-08-16T17:17:00.426Z,11.02
2022-08-16T17:19:31.827Z,11.27
2022-08-16T17:21:58.707Z,13.85
2022-08-16T17:24:39.502Z,13.00
2022-08-16T17:27:07.446Z,12.48
2022-08-16T17:29:34.692Z,12.70
2022-08-16T17:32:34.050Z,11.88
2022-08-16T17:35:03.020Z,13.55
2022-08-16T17:37:50.917Z,13.73
2022-08-16T17:40:40.848Z,12.05
2022-08-16T17:43:05.612Z,14.40
2022-08-16T17:45:33.090Z,15.02
2022-08-16T17:47:59.780Z,13.75
2022-08-16T17:50:29.701Z,15.88
2022-08-16T17:52:57.120Z,13.60
2022-08-16T17:55:27.921Z,16.15
2022-08-16T18:00:21.601Z,14.02
2022-08-16T18:02:50.316Z,16.58
2022-08-16T18:05:17.161Z,18.92
2022-08-16T18:07:47.242Z,14.75
2022-08-16T18:10:32.761Z,16.05
2022-08-16T18:13:02.034Z,16.40
2022-08-16T18:15:28.843Z,15.93
2022-08-16T18:17:55.232Z,14.30
2022-08-16T18:20:41.144Z,17.27
2022-08-16T18:23:10.444Z,15.38
2022-08-16T18:25:47.825Z,17.65
2022-08-16T18:28:14.668Z,16.42
2022-08-16T18:30:41.102Z,18.65
2022-08-16T18:33:07.842Z,18.33
2022-08-16T18:35:34.631Z,16.17
2022-08-16T18:38:01.021Z,20.20
2022-08-16T18:40:27.788Z,17.23
2022-08-16T18:42:56.016Z,19.17
2022-08-16T18:45:22.810Z,20.67
2022-08-16T18:47:49.259Z,18.00
2022-08-16T18:50:15.848Z,20.85
2022-08-16T18:52:50.088Z,18.08
2022-08-16T18:55:16.706Z,23.45
2022-08-16T18:57:44.742Z,21.67
2022-08-16T19:00:12.608Z,21.73
2022-08-16T19:02:57.441Z,20.05
2022-08-16T19:05:26.671Z,19.83
2022-08-16T19:07:53.101Z,20.98
2022-08-16T19:10:19.613Z,20.40
2022-08-16T19:12:45.989Z,22.38
2022-08-16T19:15:17.525Z,22.20
2022-08-16T19:17:45.848Z,23.13
2022-08-16T19:20:13.023Z,19.75
2022-08-16T19:23:02.121Z,26.00
2022-08-16T19:25:47.493Z,20.60
2022-08-16T19:28:51.910Z,17.90
2022-08-16T19:31:03.266Z,23.95
2022-08-16T19:33:29.710Z,19.08
2022-08-16T19:35:56.129Z,21.92
2022-08-16T19:38:22.681Z,20.05
2022-08-16T19:40:49.204Z,19.48
2022-08-16T19:43:15.626Z,22.48
2022-08-16T19:45:45.981Z,20.95
2022-08-16T19:50:39.148Z,25.05
2022-08-16T19:53:12.885Z,23.90
2022-08-16T19:55:45.605Z,21.25
2022-08-16T19:58:13.784Z,24.05
2022-08-16T20:00:43.019Z,22.70
2022-08-16T20:03:11.585Z,23.80
2022-08-16T20:05:38.208Z,22.85
2022-08-16T20:08:05.970Z,23.42
2022-08-16T20:10:32.388Z,24.75
2022-08-16T20:13:02.458Z,29.30
2022-08-16T20:15:30.488Z,20.75
2022-08-16T20:18:00.256Z,23.88
2022-08-16T20:20:27.395Z,27.45
2022-08-16T20:22:54.724Z,21.02
2022-08-16T20:25:29.969Z,23.08
2022-08-16T20:27:57.948Z,24.60
2022-08-16T20:30:26.827Z,27.77
2022-08-16T20:32:53.720Z,23.73
2022-08-16T20:35:21.795Z,27.17
2022-08-16T20:37:48.309Z,22.90
2022-08-16T20:40:34.055Z,26.08
2022-08-16T20:43:06.754Z,23.02
2022-08-16T20:45:33.722Z,22.80
2022-08-16T20:48:00.135Z,26.02
2022-08-16T20:50:28.625Z,25.13
2022-08-16T20:52:56.058Z,24.45
2022-08-16T20:55:23.697Z,29.70
2022-08-16T20:57:55.261Z,24.65
2022-08-16T21:00:21.677Z,25.30
2022-08-16T21:02:48.565Z,25.90
2022-08-16T21:05:22.778Z,23.85
2022-08-16T21:07:51.798Z,22.55
2022-08-16T21:10:21.104Z,26.42
2022-08-16T21:12:52.724Z,23.30
2022-08-16T21:15:20.632Z,24.25
2022-08-16T21:17:47.027Z,24.23
2022-08-16T21:20:13.552Z,25.67
2022-08-16T21:22:40.212Z,22.38
2022-08-16T21:25:07.599Z,22.33
2022-08-16T21:27:34.949Z,23.02
2022-08-16T21:30:12.857Z,22.38
2022-08-16T21:32:43.994Z,20.40
2022-08-16T21:35:12.620Z,24.00
2022-08-16T21:37:39.238Z,26.88
2022-08-16T21:40:06.723Z,21.95
2022-08-16T21:42:36.267Z,24.60
2022-08-16T21:45:03.642Z,23.90
2022-08-16T21:47:30.033Z,24.40
2022-08-16T21:49:56.399Z,22.42
2022-08-16T21:52:26.232Z,24.77
2022-08-16T21:54:56.271Z,23.30
2022-08-16T21:57:23.046Z,22.98
2022-08-16T21:59:53.516Z,22.52
2022-08-16T22:02:20.908Z,26.95
2022-08-16T22:04:47.813Z,25.98
2022-08-16T22:07:15.586Z,22.95
2022-08-16T22:09:42.657Z,22.63
2022-08-16T22:12:09.409Z,19.48
2022-08-16T22:14:35.934Z,17.60
2022-08-16T22:17:02.375Z,26.33
2022-08-16T22:19:28.808Z,21.25
2022-08-16T22:21:55.763Z,20.67
2022-08-16T22:24:22.217Z,19.75
2022-08-16T22:26:52.306Z,20.65
2022-08-16T22:29:19.192Z,21.17
2022-08-16T22:31:45.677Z,21.52
2022-08-16T22:34:12.777Z,16.92
2022-08-16T22:36:39.495Z,19.00
2022-08-16T22:39:07.677Z,16.95
2022-08-16T22:41:35.064Z,18.15
2022-08-16T22:44:03.728Z,19.45
2022-08-16T22:46:30.394Z,20.02
2022-08-16T22:48:57.443Z,16.05
2022-08-16T22:51:25.428Z,17.90
2022-08-16T22:53:52.795Z,20.25
2022-08-16T22:56:19.738Z,18.15
2022-08-16T22:58:46.336Z,20.05
2022-08-16T23:01:14.651Z,21.05
2022-08-16T23:03:41.766Z,22.83
2022-08-16T23:06:08.933Z,20.55
2022-08-16T23:08:39.362Z,16.40
2022-08-16T23:11:10.904Z,21.58
2022-08-16T23:13:37.325Z,21.60
2022-08-16T23:16:10.646Z,18.30
2022-08-16T23:18:38.337Z,19.10
2022-08-16T23:21:07.237Z,16.92
2022-08-16T23:23:33.604Z,22.35
2022-08-16T23:26:00.181Z,19.95
2022-08-16T23:28:30.397Z,23.33
2022-08-16T23:30:57.708Z,20.10
2022-08-16T23:33:25.342Z,22.70
2022-08-16T23:35:53.267Z,23.33
2022-08-16T23:38:38.526Z,16.75
2022-08-16T23:41:09.083Z,22.05
2022-08-16T23:43:43.091Z,18.08
2022-08-16T23:46:15.509Z,20.55
2022-08-16T23:49:56.345Z,24.20
2022-08-16T23:51:29.052Z,27.33
2022-08-16T23:53:55.835Z,21.13
2022-08-16T23:56:22.256Z,23.42
2022-08-16T23:58:54.389Z,21.02
